Open Full Screen Window  High Contrast Mode
July 01, 2016 2:05 AM EDT
Weather Information
Wind Direction
  ---
Wind Speed
  00 kt (0 mph)
Wind Gust
  00 kt (0 mph)
Altimeter
29.97 in
Visibility
10 SM
Temperature
18° C
64° F
Dewpoint
13° C
55° F
Humidity
73%
1hr Rain Fall
00.00 in.
24hr Rain Fall
00.00 in.
Sky Condition
Scattered @ 11,000 ft
VFR

METAR KI69 010605Z AUTO 00000KT 10SM SCT110 18/13 A2997 RMK AO2 T01840127

*Background is not an actual portrayal of the airport.